createdAt,value
2022-10-18T00:02:27.522Z,99.90
2022-10-18T00:05:28.740Z,99.90
2022-10-18T00:08:30.053Z,99.90
2022-10-18T00:11:31.527Z,99.90
2022-10-18T00:14:32.240Z,99.90
2022-10-18T00:17:39.088Z,99.90
2022-10-18T00:20:40.123Z,99.90
2022-10-18T00:23:41.160Z,99.90
2022-10-18T00:26:42.282Z,99.90
2022-10-18T00:29:43.238Z,99.90
2022-10-18T00:32:44.378Z,99.90
2022-10-18T00:35:44.997Z,99.90
2022-10-18T00:38:46.801Z,99.90
2022-10-18T00:41:48.604Z,99.90
2022-10-18T00:44:49.833Z,99.90
2022-10-18T00:48:00.052Z,99.90
2022-10-18T00:51:00.858Z,99.90
2022-10-18T00:54:02.328Z,99.90
2022-10-18T00:57:05.440Z,99.90
2022-10-18T01:00:10.204Z,99.90
2022-10-18T01:03:11.426Z,99.90
2022-10-18T01:06:12.591Z,99.90
2022-10-18T01:09:30.239Z,99.90
2022-10-18T01:13:07.038Z,99.90
2022-10-18T01:16:41.968Z,99.90
2022-10-18T01:20:37.130Z,99.90
2022-10-18T01:24:08.596Z,99.90
2022-10-18T01:27:46.080Z,99.90
2022-10-18T01:31:00.236Z,99.90
2022-10-18T01:34:06.764Z,99.90
2022-10-18T01:37:11.832Z,99.90
2022-10-18T01:40:18.130Z,99.90
2022-10-18T01:43:23.227Z,99.90
2022-10-18T01:46:26.330Z,99.90
2022-10-18T01:49:27.810Z,99.90
2022-10-18T01:52:29.314Z,99.90
2022-10-18T01:56:05.891Z,99.90
2022-10-18T01:59:38.204Z,99.90
2022-10-18T02:03:09.245Z,99.90
2022-10-18T02:06:29.124Z,99.90
2022-10-18T02:09:53.295Z,99.90
2022-10-18T02:12:57.782Z,99.90
2022-10-18T02:16:08.066Z,99.90
2022-10-18T02:19:33.581Z,99.90
2022-10-18T02:22:37.341Z,99.90
2022-10-18T02:25:39.711Z,99.90
2022-10-18T02:28:41.625Z,99.90
2022-10-18T02:31:49.946Z,99.90
2022-10-18T02:35:15.749Z,99.90
2022-10-18T02:38:20.459Z,99.90
2022-10-18T02:41:27.678Z,99.90
2022-10-18T02:44:28.539Z,99.90
2022-10-18T02:47:29.576Z,99.90
2022-10-18T02:50:30.572Z,99.90
2022-10-18T02:53:31.266Z,99.90
2022-10-18T02:56:32.412Z,99.90
2022-10-18T02:59:33.652Z,99.90
2022-10-18T03:02:34.883Z,99.90
2022-10-18T03:05:36.075Z,99.90
2022-10-18T03:08:37.353Z,99.90
2022-10-18T03:11:38.215Z,99.90
2022-10-18T03:14:39.446Z,99.90
2022-10-18T03:17:40.356Z,99.90
2022-10-18T03:20:41.186Z,99.90
2022-10-18T03:23:42.448Z,99.90
2022-10-18T03:26:43.271Z,99.90
2022-10-18T03:29:43.970Z,99.90
2022-10-18T03:32:44.932Z,99.90
2022-10-18T03:35:46.032Z,99.90
2022-10-18T03:38:47.158Z,99.90
2022-10-18T03:41:47.776Z,99.90
2022-10-18T03:44:48.970Z,99.90
2022-10-18T03:47:49.740Z,99.90
2022-10-18T03:50:51.092Z,99.90
2022-10-18T03:53:51.820Z,99.90
2022-10-18T03:56:52.983Z,99.90
2022-10-18T03:59:53.893Z,99.90
2022-10-18T04:02:55.945Z,99.90
2022-10-18T04:05:57.343Z,99.90
2022-10-18T04:08:58.531Z,99.90
2022-10-18T04:11:59.302Z,99.90
2022-10-18T04:15:00.024Z,99.90
2022-10-18T04:18:01.720Z,99.90
2022-10-18T04:21:02.537Z,99.90
2022-10-18T04:24:03.390Z,99.90
2022-10-18T04:27:06.469Z,99.90
2022-10-18T04:30:08.199Z,99.90
2022-10-18T04:33:09.218Z,99.90
2022-10-18T04:36:10.059Z,99.90
2022-10-18T04:39:11.071Z,99.90
2022-10-18T04:42:11.771Z,99.90
2022-10-18T04:45:12.635Z,99.90
2022-10-18T04:48:13.475Z,99.90
2022-10-18T04:51:14.332Z,99.90
2022-10-18T04:54:15.646Z,99.90
2022-10-18T04:57:16.405Z,99.90
2022-10-18T05:00:17.553Z,99.90
2022-10-18T05:03:18.726Z,99.90
2022-10-18T05:06:20.199Z,99.90
2022-10-18T05:09:24.708Z,99.90
2022-10-18T05:12:25.724Z,99.90
2022-10-18T05:15:26.745Z,99.90
2022-10-18T05:18:27.721Z,99.90
2022-10-18T05:21:28.498Z,99.90
2022-10-18T05:24:29.309Z,99.90
2022-10-18T05:27:30.129Z,99.90
2022-10-18T05:30:31.419Z,99.90
2022-10-18T05:33:32.831Z,99.90
2022-10-18T05:36:33.645Z,99.90
2022-10-18T05:39:34.395Z,99.90
2022-10-18T05:42:35.496Z,99.90
2022-10-18T05:45:36.726Z,99.90
2022-10-18T05:48:37.958Z,99.90
2022-10-18T05:51:39.576Z,99.90
2022-10-18T05:54:41.178Z,99.90
2022-10-18T05:57:42.084Z,99.90
2022-10-18T06:00:42.936Z,99.90
2022-10-18T06:03:43.803Z,99.90
2022-10-18T06:06:44.725Z,99.90
2022-10-18T06:09:45.930Z,99.90
2022-10-18T06:12:46.625Z,99.90
2022-10-18T06:15:47.449Z,99.90
2022-10-18T06:18:54.751Z,99.90
2022-10-18T06:21:55.374Z,99.90
2022-10-18T06:24:57.282Z,99.90
2022-10-18T06:27:58.201Z,99.90
2022-10-18T06:30:58.953Z,99.90
2022-10-18T06:33:59.896Z,99.90
2022-10-18T06:37:00.749Z,99.90
2022-10-18T06:40:01.553Z,99.90
2022-10-18T06:43:20.203Z,99.90
2022-10-18T06:46:21.678Z,99.90
2022-10-18T06:49:22.646Z,99.90
2022-10-18T06:52:25.812Z,99.90
2022-10-18T06:55:26.648Z,99.90
2022-10-18T06:58:27.869Z,99.90
2022-10-18T07:01:29.338Z,99.90
2022-10-18T07:04:30.936Z,99.90
2022-10-18T07:07:32.304Z,99.90
2022-10-18T07:10:33.700Z,99.90
2022-10-18T07:13:35.486Z,99.90
2022-10-18T07:16:36.380Z,99.90
2022-10-18T07:19:37.680Z,99.90
2022-10-18T07:22:40.011Z,99.90
2022-10-18T07:25:41.238Z,99.90
2022-10-18T07:28:44.097Z,99.90
2022-10-18T07:31:45.183Z,99.90
2022-10-18T07:34:45.948Z,99.90
2022-10-18T07:37:46.779Z,99.90
2022-10-18T07:40:47.978Z,99.90
2022-10-18T07:43:52.083Z,99.90
2022-10-18T07:46:53.516Z,99.90
2022-10-18T07:49:54.524Z,99.90
2022-10-18T07:52:55.279Z,99.90
2022-10-18T07:56:04.561Z,99.90
2022-10-18T07:59:10.910Z,99.90
2022-10-18T08:02:11.932Z,99.90
2022-10-18T08:05:12.728Z,99.90
2022-10-18T08:08:13.590Z,99.90
2022-10-18T08:11:32.718Z,99.90
2022-10-18T08:14:33.523Z,99.90
2022-10-18T08:17:35.059Z,99.90
2022-10-18T08:20:37.224Z,99.90
2022-10-18T08:23:38.823Z,99.90
2022-10-18T08:26:39.588Z,99.90
2022-10-18T08:29:40.999Z,99.90
2022-10-18T08:32:41.831Z,99.90
2022-10-18T08:35:42.864Z,99.90
2022-10-18T08:38:44.408Z,99.90
2022-10-18T08:42:12.933Z,99.90
2022-10-18T08:45:30.243Z,99.90
2022-10-18T08:48:51.693Z,99.90
2022-10-18T08:51:53.719Z,99.90
2022-10-18T08:55:10.521Z,99.90
2022-10-18T08:58:20.536Z,99.90
2022-10-18T09:01:42.999Z,99.90
2022-10-18T09:05:14.611Z,99.90
2022-10-18T09:08:35.234Z,99.90
2022-10-18T09:11:45.258Z,99.90
2022-10-18T09:15:16.079Z,99.90
2022-10-18T09:18:35.450Z,98.20
2022-10-18T09:21:54.807Z,97.40
2022-10-18T09:25:05.718Z,99.30
2022-10-18T09:28:36.049Z,97.70
2022-10-18T09:31:47.255Z,95.70
2022-10-18T09:35:06.129Z,98.80
2022-10-18T09:38:16.211Z,97.00
2022-10-18T09:41:47.609Z,91.60
2022-10-18T09:44:58.907Z,90.80
2022-10-18T09:48:29.628Z,91.50
2022-10-18T09:51:38.964Z,93.40
2022-10-18T09:54:56.173Z,93.50
2022-10-18T09:58:02.630Z,93.50
2022-10-18T10:01:03.682Z,88.40
2022-10-18T10:04:04.675Z,88.80
2022-10-18T10:07:13.522Z,84.50
2022-10-18T10:10:28.148Z,89.10
2022-10-18T10:13:28.958Z,87.10
2022-10-18T10:16:30.147Z,90.20
2022-10-18T10:19:34.817Z,90.30
2022-10-18T10:22:41.248Z,88.80
2022-10-18T10:25:43.566Z,84.40
2022-10-18T10:28:49.146Z,81.40
2022-10-18T10:32:04.164Z,80.00
2022-10-18T10:35:33.817Z,78.80
2022-10-18T10:38:36.492Z,77.70
2022-10-18T10:41:40.907Z,76.60
2022-10-18T10:44:55.565Z,73.80
2022-10-18T10:48:15.788Z,73.30
2022-10-18T10:51:38.729Z,73.30
2022-10-18T10:54:47.561Z,72.10
2022-10-18T10:57:54.346Z,73.80
2022-10-18T11:00:58.014Z,74.70
2022-10-18T11:04:04.276Z,76.00
2022-10-18T11:07:27.673Z,79.50
2022-10-18T11:10:34.781Z,79.80
2022-10-18T11:14:24.728Z,79.00
2022-10-18T11:18:29.373Z,81.00
2022-10-18T11:21:32.890Z,77.70
2022-10-18T11:24:36.432Z,78.10
2022-10-18T11:27:49.347Z,79.00
2022-10-18T11:31:04.600Z,77.80
2022-10-18T11:34:39.006Z,79.70
2022-10-18T11:38:05.167Z,84.00
2022-10-18T11:41:24.118Z,83.30
2022-10-18T11:44:50.145Z,92.70
2022-10-18T11:48:40.787Z,92.60
2022-10-18T11:52:06.621Z,91.00
2022-10-18T11:55:30.308Z,84.90
2022-10-18T11:58:58.319Z,82.60
2022-10-18T12:02:44.736Z,82.60
2022-10-18T12:05:50.220Z,78.60
2022-10-18T12:08:59.878Z,80.60
2022-10-18T12:12:37.215Z,78.40
2022-10-18T12:15:40.999Z,82.70
2022-10-18T12:19:06.093Z,79.10
2022-10-18T12:22:26.027Z,75.40
2022-10-18T12:25:32.611Z,74.40
2022-10-18T12:28:33.472Z,79.30
2022-10-18T12:31:59.552Z,78.40
2022-10-18T12:35:18.545Z,81.80
2022-10-18T12:38:26.910Z,89.10
2022-10-18T12:41:35.753Z,92.40
2022-10-18T12:44:36.905Z,97.30
2022-10-18T12:47:38.126Z,97.50
2022-10-18T12:50:43.248Z,98.70
2022-10-18T12:54:02.159Z,97.50
2022-10-18T12:57:06.534Z,97.40
2022-10-18T13:00:30.421Z,92.10
2022-10-18T13:03:54.955Z,88.40
2022-10-18T13:06:59.697Z,83.70
2022-10-18T13:10:13.040Z,94.20
2022-10-18T13:13:39.864Z,91.90
2022-10-18T13:17:33.673Z,90.90
2022-10-18T13:21:03.029Z,85.20
2022-10-18T13:25:01.914Z,76.90
2022-10-18T13:28:37.791Z,87.10
2022-10-18T13:32:07.658Z,89.70
2022-10-18T13:35:55.079Z,82.20
2022-10-18T13:39:03.779Z,71.30
2022-10-18T13:42:28.308Z,68.00
2022-10-18T13:45:32.044Z,66.50
2022-10-18T13:48:35.621Z,63.70
2022-10-18T13:52:18.990Z,62.70
2022-10-18T13:56:28.428Z,63.00
2022-10-18T14:00:02.926Z,61.00
2022-10-18T14:03:57.607Z,59.60
2022-10-18T14:07:05.225Z,59.40
2022-10-18T14:10:26.772Z,68.60
2022-10-18T14:13:56.546Z,70.50
2022-10-18T14:17:15.423Z,66.30
2022-10-18T14:20:49.433Z,65.90
2022-10-18T14:24:00.631Z,70.20
2022-10-18T14:27:33.098Z,73.40
2022-10-18T14:30:36.494Z,76.90
2022-10-18T14:33:52.632Z,86.70
2022-10-18T14:36:56.048Z,82.60
2022-10-18T14:39:56.972Z,78.20
2022-10-18T14:43:10.425Z,75.90
2022-10-18T14:46:30.029Z,71.10
2022-10-18T14:49:32.088Z,71.80
2022-10-18T14:52:35.713Z,71.10
2022-10-18T14:55:39.100Z,80.40
2022-10-18T14:58:42.606Z,81.80
2022-10-18T15:01:58.524Z,78.10
2022-10-18T15:05:25.326Z,78.70
2022-10-18T15:08:40.280Z,83.70
2022-10-18T15:11:44.773Z,89.00
2022-10-18T15:14:47.955Z,83.40
2022-10-18T15:17:50.155Z,74.80
2022-10-18T15:21:22.228Z,74.30
2022-10-18T15:24:41.000Z,83.00
2022-10-18T15:27:46.479Z,87.40
2022-10-18T15:30:47.558Z,80.20
2022-10-18T15:33:48.361Z,77.50
2022-10-18T15:36:51.933Z,76.30
2022-10-18T15:40:21.844Z,77.00
2022-10-18T15:43:28.586Z,79.10
2022-10-18T15:46:32.160Z,79.50
2022-10-18T15:49:45.266Z,80.40
2022-10-18T15:52:46.156Z,82.20
2022-10-18T15:56:26.200Z,83.30
2022-10-18T15:59:31.038Z,87.80
2022-10-18T16:02:32.175Z,96.10
2022-10-18T16:05:33.056Z,99.90
2022-10-18T16:08:42.825Z,99.90
2022-10-18T16:11:44.247Z,99.90
2022-10-18T16:14:45.463Z,99.90
2022-10-18T16:17:52.229Z,99.90
2022-10-18T16:20:53.343Z,99.90
2022-10-18T16:23:54.837Z,99.90
2022-10-18T16:26:55.590Z,99.90
2022-10-18T16:29:56.797Z,99.90
2022-10-18T16:32:57.882Z,99.90
2022-10-18T16:35:59.511Z,99.90
2022-10-18T16:39:07.825Z,99.90
2022-10-18T16:42:09.038Z,99.90
2022-10-18T16:45:10.262Z,99.90
2022-10-18T16:48:21.948Z,99.90
2022-10-18T16:51:23.463Z,99.90
2022-10-18T16:54:24.512Z,99.90
2022-10-18T16:57:25.464Z,99.90
2022-10-18T17:00:26.268Z,99.90
2022-10-18T17:03:27.176Z,99.90
2022-10-18T17:06:32.485Z,99.90
2022-10-18T17:09:35.177Z,99.90
2022-10-18T17:12:36.091Z,99.90
2022-10-18T17:15:37.039Z,99.90
2022-10-18T17:18:37.838Z,99.90
2022-10-18T17:21:38.629Z,99.90
2022-10-18T17:24:39.446Z,99.90
2022-10-18T17:27:40.385Z,99.90
2022-10-18T17:30:42.830Z,99.90
2022-10-18T17:33:43.562Z,99.90
2022-10-18T17:36:45.789Z,99.90
2022-10-18T17:39:46.660Z,99.90
2022-10-18T17:42:50.097Z,99.90
2022-10-18T17:45:56.327Z,99.90
2022-10-18T17:48:58.264Z,99.90
2022-10-18T17:52:03.306Z,99.90
2022-10-18T17:55:08.203Z,99.90
2022-10-18T17:58:09.200Z,99.90
2022-10-18T18:01:18.753Z,99.90
2022-10-18T18:04:19.837Z,99.90
2022-10-18T18:07:21.310Z,99.90
2022-10-18T18:10:22.354Z,99.90
2022-10-18T18:13:26.278Z,99.90
2022-10-18T18:16:30.079Z,99.90
2022-10-18T18:19:31.501Z,99.90
2022-10-18T18:22:32.861Z,99.90
2022-10-18T18:25:33.920Z,99.90
2022-10-18T18:28:36.494Z,99.90
2022-10-18T18:31:40.028Z,99.90
2022-10-18T18:34:43.311Z,99.90
2022-10-18T18:37:44.718Z,99.90
2022-10-18T18:40:45.974Z,99.90
2022-10-18T18:44:05.427Z,99.90
2022-10-18T18:47:10.861Z,99.90
2022-10-18T18:50:14.295Z,99.90
2022-10-18T18:53:15.883Z,99.90
2022-10-18T18:56:23.542Z,99.90
2022-10-18T18:59:25.330Z,99.90
2022-10-18T19:02:26.167Z,99.90
2022-10-18T19:05:28.824Z,99.90
2022-10-18T19:08:30.037Z,99.90
2022-10-18T19:11:36.491Z,99.90
2022-10-18T19:14:37.603Z,99.90
2022-10-18T19:17:38.272Z,99.90
2022-10-18T19:20:39.062Z,99.90
2022-10-18T19:23:39.721Z,99.90
2022-10-18T19:26:45.344Z,99.90
2022-10-18T19:29:46.270Z,99.90
2022-10-18T19:32:47.300Z,99.90
2022-10-18T19:35:48.440Z,99.90
2022-10-18T19:38:49.228Z,99.90
2022-10-18T19:41:55.268Z,99.90
2022-10-18T19:44:56.310Z,99.90
2022-10-18T19:47:56.947Z,99.90
2022-10-18T19:51:07.066Z,99.90
2022-10-18T19:54:13.058Z,99.90
2022-10-18T19:57:13.835Z,99.90
2022-10-18T20:00:18.657Z,99.90
2022-10-18T20:03:21.153Z,99.90
2022-10-18T20:06:23.272Z,99.90
2022-10-18T20:09:24.535Z,99.90
2022-10-18T20:12:25.311Z,99.90
2022-10-18T20:15:26.320Z,99.90
2022-10-18T20:18:27.686Z,99.90
2022-10-18T20:21:31.826Z,99.90
2022-10-18T20:24:32.690Z,99.90
2022-10-18T20:27:33.731Z,99.90
2022-10-18T20:30:34.722Z,99.90
2022-10-18T20:33:36.583Z,99.90
2022-10-18T20:36:38.260Z,99.90
2022-10-18T20:39:40.619Z,99.90
2022-10-18T20:42:42.127Z,99.90
2022-10-18T20:45:42.929Z,99.90
2022-10-18T20:48:44.256Z,99.90
2022-10-18T20:51:45.735Z,99.90
2022-10-18T20:54:46.483Z,99.90
2022-10-18T20:57:49.554Z,99.90
2022-10-18T21:00:50.652Z,99.90
2022-10-18T21:03:54.483Z,99.90
2022-10-18T21:06:55.532Z,99.90
2022-10-18T21:09:56.440Z,99.90
2022-10-18T21:12:57.464Z,99.90
2022-10-18T21:15:59.453Z,99.90
2022-10-18T21:19:10.099Z,99.90
2022-10-18T21:22:11.059Z,99.90
2022-10-18T21:25:11.896Z,99.90
2022-10-18T21:28:14.495Z,99.90
2022-10-18T21:31:20.006Z,99.90
2022-10-18T21:34:21.429Z,99.90
2022-10-18T21:37:22.332Z,99.90
2022-10-18T21:40:23.045Z,99.90
2022-10-18T21:43:24.305Z,99.90
2022-10-18T21:46:27.093Z,99.90
2022-10-18T21:49:29.238Z,99.90
2022-10-18T21:52:30.384Z,99.90
2022-10-18T21:55:31.279Z,99.90
2022-10-18T21:58:32.313Z,99.90
2022-10-18T22:01:38.075Z,99.90
2022-10-18T22:04:41.310Z,99.90
2022-10-18T22:07:41.994Z,99.90
2022-10-18T22:10:42.755Z,99.90
2022-10-18T22:13:44.029Z,99.90
2022-10-18T22:16:44.850Z,99.90
2022-10-18T22:19:47.403Z,99.90
2022-10-18T22:22:48.379Z,99.90
2022-10-18T22:25:49.865Z,99.90
2022-10-18T22:28:59.534Z,99.90
2022-10-18T22:32:01.890Z,99.90
2022-10-18T22:35:02.908Z,99.90
2022-10-18T22:38:04.119Z,99.90
2022-10-18T22:41:10.985Z,99.90
2022-10-18T22:44:14.782Z,99.90
2022-10-18T22:47:15.565Z,99.90
2022-10-18T22:50:16.883Z,99.90
2022-10-18T22:53:17.386Z,99.90
2022-10-18T22:56:21.037Z,99.90
2022-10-18T22:59:22.228Z,99.90
2022-10-18T23:02:22.953Z,99.90
2022-10-18T23:05:23.782Z,99.90
2022-10-18T23:08:25.041Z,99.90
2022-10-18T23:11:27.860Z,99.90
2022-10-18T23:14:28.670Z,99.90
2022-10-18T23:17:29.417Z,99.90
2022-10-18T23:20:30.697Z,99.90
2022-10-18T23:23:35.670Z,99.90
2022-10-18T23:26:36.465Z,99.90
2022-10-18T23:29:37.286Z,99.90
2022-10-18T23:32:39.599Z,99.90
2022-10-18T23:35:40.668Z,99.90
2022-10-18T23:38:42.509Z,99.90
2022-10-18T23:41:43.246Z,99.90
2022-10-18T23:44:44.148Z,99.90
2022-10-18T23:47:44.962Z,99.90
2022-10-18T23:50:46.288Z,99.90
2022-10-18T23:53:47.246Z,99.90
2022-10-18T23:56:48.272Z,99.90
2022-10-18T23:59:49.141Z,99.90
